createdAt,value
2019-04-22T00:02:28.108Z,9.93
2019-04-22T00:05:12.304Z,10.77
2019-04-22T00:08:05.182Z,10.37
2019-04-22T00:10:44.273Z,10.37
2019-04-22T00:13:06.747Z,9.60
2019-04-22T00:15:36.820Z,10.03
2019-04-22T00:18:22.433Z,10.90
2019-04-22T00:20:52.921Z,12.07
2019-04-22T00:23:18.724Z,11.37
2019-04-22T00:25:56.104Z,10.67
2019-04-22T00:28:33.404Z,11.17
2019-04-22T00:31:06.705Z,11.33
2019-04-22T00:33:32.371Z,10.90
2019-04-22T00:36:14.976Z,11.10
2019-04-22T00:38:49.497Z,10.80
2019-04-22T00:41:13.143Z,10.27
2019-04-22T00:43:48.170Z,9.30
2019-04-22T00:46:26.825Z,9.60
2019-04-22T00:49:43.890Z,9.33
2019-04-22T00:51:28.763Z,9.13
2019-04-22T00:54:00.748Z,8.90
2019-04-22T00:56:37.268Z,8.77
2019-04-22T00:59:08.195Z,8.30
2019-04-22T01:01:42.990Z,9.00
2019-04-22T01:04:25.630Z,9.13
2019-04-22T01:06:51.470Z,9.10
2019-04-22T01:09:25.102Z,7.97
2019-04-22T01:11:55.665Z,8.43
2019-04-22T01:14:28.975Z,8.13
2019-04-22T01:17:00.286Z,8.33
2019-04-22T01:19:47.097Z,8.00
2019-04-22T01:22:12.854Z,8.67
2019-04-22T01:24:46.449Z,8.33
2019-04-22T01:27:13.453Z,7.80
2019-04-22T01:29:46.796Z,8.70
2019-04-22T01:32:13.107Z,8.53
2019-04-22T01:34:52.710Z,8.60
2019-04-22T01:37:28.847Z,9.10
2019-04-22T01:40:09.977Z,9.17
2019-04-22T01:42:54.044Z,9.83
2019-04-22T01:45:22.803Z,8.93
2019-04-22T01:47:48.689Z,8.57
2019-04-22T01:50:26.543Z,9.50
2019-04-22T01:52:58.638Z,9.43
2019-04-22T01:55:31.325Z,9.60
2019-04-22T01:57:59.528Z,8.80
2019-04-22T02:00:38.455Z,9.20
2019-04-22T02:03:10.555Z,9.00
2019-04-22T02:05:35.438Z,8.47
2019-04-22T02:08:29.506Z,9.33
2019-04-22T02:10:48.787Z,8.83
2019-04-22T02:13:23.478Z,8.60
2019-04-22T02:15:52.707Z,8.53
2019-04-22T02:20:55.294Z,8.67
2019-04-22T02:26:07.262Z,9.17
2019-04-22T02:41:35.068Z,11.13
2019-04-22T02:44:12.587Z,11.70
2019-04-22T02:47:04.437Z,11.33
2019-04-22T02:51:52.261Z,10.87
2019-04-22T02:54:36.566Z,11.87
2019-04-22T03:06:46.077Z,11.00
2019-04-22T03:09:28.408Z,10.43
2019-04-22T03:17:17.603Z,9.77
2019-04-22T03:19:51.447Z,9.93
2019-04-22T03:22:27.963Z,11.00
2019-04-22T03:24:55.927Z,11.20
2019-04-22T03:33:12.263Z,9.13
2019-04-22T03:37:58.654Z,10.40
2019-04-22T03:40:37.258Z,10.13
2019-04-22T03:45:31.486Z,9.20
2019-04-22T03:50:45.802Z,9.43
2019-04-22T03:53:26.780Z,9.70
2019-04-22T03:55:55.973Z,9.60
2019-04-22T03:58:21.487Z,10.43
2019-04-22T04:01:21.757Z,9.70
2019-04-22T04:03:30.607Z,9.70
2019-04-22T04:06:08.689Z,9.80
2019-04-22T04:11:06.413Z,9.17
2019-04-22T04:16:23.159Z,8.63
2019-04-22T04:19:02.597Z,9.03
2019-04-22T04:29:13.349Z,8.80
2019-04-22T04:32:02.655Z,8.80
2019-04-22T04:34:16.334Z,9.17
2019-04-22T04:39:15.404Z,8.27
2019-04-22T04:44:34.787Z,9.10
2019-04-22T04:52:19.900Z,8.03
2019-04-22T04:54:45.367Z,8.13
2019-04-22T04:57:09.377Z,7.53
2019-04-22T05:02:20.229Z,8.30
2019-04-22T05:07:34.250Z,7.83
2019-04-22T05:09:59.535Z,8.47
2019-04-22T05:12:45.914Z,8.00
2019-04-22T05:15:12.018Z,7.50
2019-04-22T05:20:38.765Z,7.40
2019-04-22T05:25:19.017Z,7.67
2019-04-22T05:27:50.990Z,7.50
2019-04-22T05:33:02.889Z,7.13
2019-04-22T05:35:37.815Z,7.33
2019-04-22T05:40:54.684Z,6.57
2019-04-22T05:44:38.295Z,6.27
2019-04-22T05:47:19.518Z,5.93
2019-04-22T05:53:00.499Z,5.90
2019-04-22T05:59:02.026Z,5.47
2019-04-22T06:05:01.916Z,5.30
2019-04-22T06:07:24.780Z,5.17
2019-04-22T06:10:05.687Z,5.07
2019-04-22T06:12:48.008Z,5.20
2019-04-22T06:15:25.441Z,5.03
2019-04-22T06:18:09.344Z,5.40
2019-04-22T06:20:42.049Z,5.00
2019-04-22T06:23:12.869Z,5.23
2019-04-22T06:28:25.184Z,4.73
2019-04-22T06:30:51.672Z,5.17
2019-04-22T06:33:20.822Z,4.47
2019-04-22T06:35:53.781Z,4.80
2019-04-22T06:41:00.677Z,4.70
2019-04-22T06:43:29.621Z,4.80
2019-04-22T06:46:06.351Z,4.70
2019-04-22T06:48:33.260Z,4.77
2019-04-22T06:51:00.544Z,5.07
2019-04-22T06:53:34.399Z,4.77
2019-04-22T06:56:04.839Z,4.27
2019-04-22T06:58:39.885Z,4.50
2019-04-22T07:01:19.347Z,4.63
2019-04-22T07:03:58.470Z,4.60
2019-04-22T07:06:26.186Z,4.97
2019-04-22T07:09:13.920Z,4.83
2019-04-22T07:11:26.594Z,4.70
2019-04-22T07:14:01.809Z,5.00
2019-04-22T07:16:32.402Z,4.33
2019-04-22T07:19:02.421Z,4.90
2019-04-22T07:21:30.631Z,4.30
2019-04-22T07:24:24.246Z,5.37
2019-04-22T07:26:37.322Z,4.57
2019-04-22T07:29:07.731Z,4.30
2019-04-22T07:31:44.676Z,5.87
2019-04-22T07:34:20.819Z,5.40
2019-04-22T07:36:53.612Z,6.00
2019-04-22T07:39:23.710Z,5.67
2019-04-22T07:41:51.344Z,5.93
2019-04-22T07:44:48.516Z,5.70
2019-04-22T07:47:04.596Z,5.87
2019-04-22T07:49:46.907Z,5.80
2019-04-22T07:52:03.689Z,5.60
2019-04-22T07:54:36.875Z,5.83
2019-04-22T07:59:40.976Z,5.73
2019-04-22T08:02:18.864Z,5.23
2019-04-22T08:05:05.702Z,5.63
2019-04-22T08:07:18.054Z,5.43
2019-04-22T08:12:29.585Z,5.13
2019-04-22T08:14:59.431Z,5.63
2019-04-22T08:17:53.228Z,5.97
2019-04-22T08:20:02.802Z,5.73
2019-04-22T08:22:35.903Z,5.10
2019-04-22T08:25:08.173Z,4.80
2019-04-22T08:27:47.130Z,4.90
2019-04-22T08:32:48.909Z,4.77
2019-04-22T08:35:38.274Z,3.93
2019-04-22T08:38:00.511Z,4.57
2019-04-22T08:40:28.797Z,4.60
2019-04-22T08:43:05.287Z,3.80
2019-04-22T08:45:32.071Z,3.80
2019-04-22T08:48:00.956Z,3.77
2019-04-22T08:50:39.458Z,3.60
2019-04-22T08:53:19.675Z,4.17
2019-04-22T08:55:47.834Z,4.37
2019-04-22T09:00:59.524Z,3.97
2019-04-22T09:03:24.432Z,3.70
2019-04-22T09:06:04.501Z,4.10
2019-04-22T09:08:34.403Z,4.60
2019-04-22T09:11:16.034Z,4.13
2019-04-22T09:13:45.452Z,4.13
2019-04-22T09:16:20.767Z,4.20
2019-04-22T09:18:48.647Z,3.60
2019-04-22T09:24:10.642Z,3.50
2019-04-22T09:26:22.920Z,3.17
2019-04-22T09:29:02.843Z,3.33
2019-04-22T09:31:29.362Z,3.63
2019-04-22T09:33:59.331Z,3.43
2019-04-22T09:39:10.614Z,2.50
2019-04-22T09:41:46.567Z,2.43
2019-04-22T09:44:19.087Z,2.10
2019-04-22T09:46:46.815Z,2.37
2019-04-22T09:51:54.000Z,2.30
2019-04-22T09:54:29.646Z,2.30
2019-04-22T09:56:56.405Z,2.73
2019-04-22T09:59:27.193Z,2.87
2019-04-22T10:02:21.439Z,2.40
2019-04-22T10:04:39.763Z,2.20
2019-04-22T10:07:09.863Z,2.70
2019-04-22T10:12:32.343Z,2.30
2019-04-22T10:14:45.654Z,2.60
2019-04-22T10:17:15.477Z,2.33
2019-04-22T10:19:47.973Z,2.30
2019-04-22T10:22:28.025Z,2.00
2019-04-22T10:24:53.608Z,2.03
2019-04-22T10:27:29.230Z,1.87
2019-04-22T10:29:59.867Z,1.93
2019-04-22T10:32:30.825Z,1.63
2019-04-22T10:35:02.370Z,1.90
2019-04-22T10:37:28.092Z,1.70
2019-04-22T10:40:02.879Z,2.00
2019-04-22T10:42:40.972Z,1.80
2019-04-22T10:45:14.472Z,1.83
2019-04-22T10:47:45.858Z,2.20
2019-04-22T10:50:18.490Z,1.80
2019-04-22T10:52:49.701Z,1.80
2019-04-22T10:55:21.348Z,1.60
2019-04-22T10:57:52.679Z,1.50
2019-04-22T11:00:23.790Z,1.40
2019-04-22T11:02:54.346Z,1.80
2019-04-22T11:05:26.169Z,1.90
2019-04-22T11:08:02.489Z,1.97
2019-04-22T11:10:46.826Z,2.20
2019-04-22T11:13:02.985Z,2.20
2019-04-22T11:15:35.021Z,2.17
2019-04-22T11:18:09.380Z,2.20
2019-04-22T11:20:41.778Z,2.00
2019-04-22T11:23:12.684Z,1.90
2019-04-22T11:25:44.157Z,2.10
2019-04-22T11:28:16.024Z,2.00
2019-04-22T11:30:48.111Z,2.47
2019-04-22T11:33:20.460Z,2.13
2019-04-22T11:35:52.119Z,2.00
2019-04-22T11:38:22.821Z,2.10
2019-04-22T11:40:56.276Z,1.97
2019-04-22T11:43:28.339Z,2.17
2019-04-22T11:46:01.309Z,1.90
2019-04-22T11:48:32.091Z,1.90
2019-04-22T11:51:04.392Z,2.10
2019-04-22T11:53:38.973Z,2.23
2019-04-22T11:56:16.815Z,1.90
2019-04-22T11:58:48.918Z,2.10
2019-04-22T12:01:21.000Z,2.00
2019-04-22T12:03:51.907Z,1.90
2019-04-22T12:06:24.001Z,1.73
2019-04-22T12:08:55.112Z,1.60
2019-04-22T12:11:26.373Z,1.80
2019-04-22T12:14:04.132Z,1.50
2019-04-22T12:16:35.252Z,1.53
2019-04-22T12:19:07.120Z,1.77
2019-04-22T12:21:39.211Z,1.50
2019-04-22T12:24:10.940Z,1.60
2019-04-22T12:26:44.229Z,1.50
2019-04-22T12:29:15.358Z,1.57
2019-04-22T12:31:47.265Z,1.60
2019-04-22T12:34:19.453Z,1.40
2019-04-22T12:36:51.142Z,1.30
2019-04-22T12:39:21.593Z,1.23
2019-04-22T12:41:52.266Z,1.50
2019-04-22T12:44:24.408Z,1.37
2019-04-22T12:46:56.449Z,1.17
2019-04-22T12:49:28.052Z,1.20
2019-04-22T12:51:59.048Z,1.10
2019-04-22T12:54:31.156Z,1.20
2019-04-22T12:57:03.810Z,1.23
2019-04-22T12:59:37.442Z,1.43
2019-04-22T13:02:09.170Z,1.10
2019-04-22T13:04:42.226Z,1.43
2019-04-22T13:07:13.553Z,1.30
2019-04-22T13:09:45.378Z,1.37
2019-04-22T13:12:17.134Z,1.10
2019-04-22T13:14:48.891Z,1.20
2019-04-22T13:17:20.809Z,1.13
2019-04-22T13:19:51.888Z,1.20
2019-04-22T13:22:23.211Z,1.40
2019-04-22T13:24:54.183Z,1.13
2019-04-22T13:27:24.901Z,1.47
2019-04-22T13:29:55.396Z,1.30
2019-04-22T13:32:26.879Z,1.00
2019-04-22T13:35:01.234Z,1.30
2019-04-22T13:37:30.810Z,1.30
2019-04-22T13:40:01.517Z,1.00
2019-04-22T13:42:33.410Z,1.07
2019-04-22T13:45:05.623Z,1.17
2019-04-22T13:47:59.655Z,1.10
2019-04-22T13:50:47.602Z,1.03
2019-04-22T13:53:22.112Z,0.80
2019-04-22T13:55:51.366Z,1.30
2019-04-22T13:58:03.858Z,1.17
2019-04-22T14:00:26.964Z,1.20
2019-04-22T14:03:16.243Z,1.10
2019-04-22T14:05:48.814Z,0.90
2019-04-22T14:08:19.916Z,0.80
2019-04-22T14:10:50.458Z,0.90
2019-04-22T14:13:21.676Z,1.00
2019-04-22T14:15:52.955Z,1.10
2019-04-22T14:18:23.555Z,1.05
2019-04-22T14:20:54.530Z,0.90
2019-04-22T14:23:24.875Z,0.90
2019-04-22T14:25:56.676Z,0.90
2019-04-22T14:28:29.271Z,1.05
2019-04-22T14:31:00.407Z,0.82
2019-04-22T14:33:32.075Z,1.00
2019-04-22T14:36:02.932Z,1.02
2019-04-22T14:38:34.686Z,0.90
2019-04-22T14:41:05.971Z,0.80
2019-04-22T14:44:23.823Z,0.90
2019-04-22T14:46:36.468Z,0.98
2019-04-22T14:49:07.640Z,1.07
2019-04-22T14:51:34.070Z,1.00
2019-04-22T14:54:06.705Z,1.30
2019-04-22T14:56:20.167Z,1.30
2019-04-22T14:58:54.977Z,0.97
2019-04-22T15:01:26.751Z,1.07
2019-04-22T15:03:58.657Z,1.00
2019-04-22T15:06:31.507Z,1.00
2019-04-22T15:09:03.750Z,1.13
2019-04-22T15:11:45.989Z,1.10
2019-04-22T15:14:09.649Z,1.30
2019-04-22T15:17:00.575Z,0.80
2019-04-22T15:19:38.253Z,1.20
2019-04-22T15:22:08.710Z,1.20
2019-04-22T15:24:40.595Z,1.00
2019-04-22T15:27:11.432Z,1.03
2019-04-22T15:29:43.154Z,1.20
2019-04-22T15:32:15.537Z,1.10
2019-04-22T15:34:46.976Z,1.00
2019-04-22T15:37:18.093Z,1.20
2019-04-22T15:39:49.835Z,1.10
2019-04-22T15:42:27.754Z,1.50
2019-04-22T15:44:56.070Z,1.27
2019-04-22T15:47:27.097Z,1.50
2019-04-22T15:49:58.340Z,1.20
2019-04-22T15:52:36.615Z,1.70
2019-04-22T15:55:02.924Z,1.50
2019-04-22T15:57:36.483Z,1.40
2019-04-22T16:00:22.388Z,1.70
2019-04-22T16:02:39.520Z,1.40
2019-04-22T16:05:10.680Z,1.83
2019-04-22T16:07:42.233Z,1.53
2019-04-22T16:10:15.751Z,3.50
2019-04-22T16:12:57.608Z,1.20
2019-04-22T16:15:24.542Z,5.23
2019-04-22T16:18:00.816Z,1.90
2019-04-22T16:20:30.278Z,1.37
2019-04-22T16:23:09.589Z,1.40
2019-04-22T16:25:59.088Z,1.77
2019-04-22T16:28:31.190Z,47.00
2019-04-22T16:31:03.671Z,2.07
2019-04-22T16:33:39.350Z,1.50
2019-04-22T16:42:58.614Z,1.60
2019-04-22T16:45:25.720Z,1.40
2019-04-22T16:47:57.968Z,1.50
2019-04-22T16:50:30.213Z,1.70
2019-04-22T16:53:02.112Z,2.70
2019-04-22T16:55:32.736Z,1.60
2019-04-22T16:58:05.325Z,1.80
2019-04-22T17:00:36.551Z,1.70
2019-04-22T17:03:36.554Z,1.43
2019-04-22T17:06:19.422Z,1.40
2019-04-22T17:08:50.886Z,1.70
2019-04-22T17:11:22.163Z,1.50
2019-04-22T17:13:53.182Z,1.70
2019-04-22T17:16:24.340Z,1.87
2019-04-22T17:18:58.393Z,1.90
2019-04-22T17:21:29.906Z,1.53
2019-04-22T17:24:01.388Z,1.60
2019-04-22T17:26:34.445Z,1.67
2019-04-22T17:29:06.458Z,1.40
2019-04-22T17:31:40.886Z,1.50
2019-04-22T17:34:11.533Z,1.77
2019-04-22T17:36:42.418Z,1.60
2019-04-22T17:39:29.529Z,1.60
2019-04-22T17:42:03.449Z,1.67
2019-04-22T17:47:33.199Z,1.80
2019-04-22T17:50:14.486Z,2.00
2019-04-22T17:52:51.205Z,2.00
2019-04-22T17:55:19.105Z,1.50
2019-04-22T17:57:49.529Z,1.93
2019-04-22T18:00:21.814Z,1.70
2019-04-22T18:02:48.409Z,1.77
2019-04-22T18:05:12.795Z,2.07
2019-04-22T18:08:02.609Z,1.50
2019-04-22T18:10:37.578Z,1.50
2019-04-22T18:13:14.373Z,1.63
2019-04-22T18:15:43.548Z,1.20
2019-04-22T18:18:19.009Z,1.70
2019-04-22T18:20:42.300Z,1.70
2019-04-22T18:23:09.122Z,2.00
2019-04-22T18:25:53.794Z,1.90
2019-04-22T18:28:31.661Z,1.40
2019-04-22T18:34:04.489Z,1.57
2019-04-22T18:36:37.292Z,1.60
2019-04-22T18:41:43.968Z,1.90
2019-04-22T18:44:23.562Z,1.50
2019-04-22T18:46:53.822Z,1.50
2019-04-22T18:49:27.769Z,1.40
2019-04-22T18:52:11.280Z,1.70
2019-04-22T18:55:04.195Z,1.60
2019-04-22T18:57:53.449Z,1.80
2019-04-22T19:00:17.916Z,1.87
2019-04-22T19:02:55.818Z,1.70
2019-04-22T19:05:42.663Z,1.60
2019-04-22T19:11:00.594Z,2.00
2019-04-22T19:14:00.761Z,1.80
2019-04-22T19:16:01.734Z,1.97
2019-04-22T19:21:01.246Z,2.10
2019-04-22T19:23:32.005Z,1.77
2019-04-22T19:26:08.322Z,2.10
2019-04-22T19:28:42.112Z,1.90
2019-04-22T19:31:15.416Z,1.87
2019-04-22T19:33:52.261Z,1.70
2019-04-22T19:36:14.679Z,2.07
2019-04-22T19:38:45.511Z,1.80
2019-04-22T19:41:24.098Z,1.67
2019-04-22T19:43:48.936Z,1.80
2019-04-22T19:46:25.062Z,1.90
2019-04-22T19:49:19.908Z,2.17
2019-04-22T19:51:36.655Z,1.90
2019-04-22T19:54:02.350Z,2.00
2019-04-22T19:56:28.200Z,2.77
2019-04-22T19:59:05.207Z,2.13
2019-04-22T20:01:54.085Z,2.30
2019-04-22T20:04:41.362Z,2.10
2019-04-22T20:07:10.699Z,2.30
2019-04-22T20:09:47.924Z,2.20
2019-04-22T20:12:18.798Z,2.50
2019-04-22T20:14:52.587Z,2.50
2019-04-22T20:17:26.790Z,2.80
2019-04-22T20:20:06.335Z,3.00
2019-04-22T20:22:28.306Z,2.70
2019-04-22T20:24:47.216Z,2.53
2019-04-22T20:27:30.101Z,2.67
2019-04-22T20:30:09.921Z,2.87
2019-04-22T20:32:36.351Z,2.60
2019-04-22T20:35:10.235Z,2.27
2019-04-22T20:37:47.977Z,2.93
2019-04-22T20:40:20.072Z,3.03
2019-04-22T20:42:49.045Z,2.90
2019-04-22T20:45:15.234Z,2.77
2019-04-22T20:47:41.252Z,2.93
2019-04-22T20:50:23.573Z,3.70
2019-04-22T20:52:59.022Z,3.40
2019-04-22T20:55:25.742Z,3.20
2019-04-22T20:58:02.726Z,3.20
2019-04-22T21:00:25.275Z,3.40
2019-04-22T21:02:57.583Z,3.40
2019-04-22T21:05:33.027Z,3.07
2019-04-22T21:08:11.445Z,3.57
2019-04-22T21:10:42.564Z,2.93
2019-04-22T21:13:11.609Z,3.00
2019-04-22T21:15:52.661Z,3.03
2019-04-22T21:18:22.156Z,2.80
2019-04-22T21:20:56.181Z,2.77
2019-04-22T21:23:22.976Z,2.93
2019-04-22T21:25:58.039Z,3.13
2019-04-22T21:28:36.730Z,3.27
2019-04-22T21:30:57.189Z,3.03
2019-04-22T21:33:37.389Z,3.00
2019-04-22T21:36:16.883Z,3.07
2019-04-22T21:38:37.496Z,3.20
2019-04-22T21:41:09.910Z,3.13
2019-04-22T21:43:50.011Z,3.03
2019-04-22T21:46:16.498Z,3.00
2019-04-22T21:48:50.896Z,2.90
2019-04-22T21:51:29.146Z,2.63
2019-04-22T21:56:53.059Z,2.13
2019-04-22T21:59:07.773Z,1.67
2019-04-22T22:04:20.741Z,1.27
2019-04-22T22:06:45.072Z,1.10
2019-04-22T22:09:34.579Z,1.40
2019-04-22T22:11:57.475Z,1.10
2019-04-22T22:14:34.829Z,1.30
2019-04-22T22:17:02.009Z,1.30
2019-04-22T22:19:42.382Z,1.17
2019-04-22T22:22:31.584Z,1.00
2019-04-22T22:24:48.237Z,1.20
2019-04-22T22:27:19.048Z,1.53
2019-04-22T22:29:59.906Z,1.37
2019-04-22T22:32:27.547Z,1.30
2019-04-22T22:34:57.264Z,1.20
2019-04-22T22:37:16.907Z,1.50
2019-04-22T22:39:51.410Z,1.30
2019-04-22T22:42:22.585Z,1.33
2019-04-22T22:44:48.656Z,1.37
2019-04-22T22:47:38.371Z,1.20
2019-04-22T22:50:10.963Z,1.37
2019-04-22T22:53:11.251Z,1.40
2019-04-22T22:55:18.126Z,1.50
2019-04-22T22:57:56.746Z,1.20
2019-04-22T23:00:15.867Z,1.20
2019-04-22T23:03:11.111Z,1.33
2019-04-22T23:05:35.412Z,1.30
2019-04-22T23:07:58.732Z,1.70
2019-04-22T23:10:31.629Z,1.40
2019-04-22T23:13:08.143Z,1.67
2019-04-22T23:15:37.528Z,1.60
2019-04-22T23:17:49.886Z,1.83
2019-04-22T23:20:27.495Z,1.90
2019-04-22T23:23:13.785Z,1.97
2019-04-22T23:25:50.048Z,2.20
2019-04-22T23:28:50.909Z,1.90
2019-04-22T23:31:31.681Z,2.40
2019-04-22T23:34:10.668Z,2.30
2019-04-22T23:37:12.240Z,2.00
2019-04-22T23:39:56.456Z,2.23
2019-04-22T23:42:23.481Z,1.80
2019-04-22T23:44:55.293Z,1.80
2019-04-22T23:47:31.006Z,1.80
2019-04-22T23:50:14.257Z,2.20
2019-04-22T23:52:53.360Z,2.10
2019-04-22T23:55:27.819Z,2.63
2019-04-22T23:58:19.209Z,2.20
